createdAt,value
2022-11-24T00:01:10.362Z,4.90
2022-11-24T00:03:37.566Z,4.65
2022-11-24T00:06:10.972Z,4.03
2022-11-24T00:08:39.283Z,5.05
2022-11-24T00:11:08.580Z,5.30
2022-11-24T00:13:35.729Z,5.00
2022-11-24T00:16:12.057Z,4.63
2022-11-24T00:18:40.266Z,4.97
2022-11-24T00:21:07.927Z,4.28
2022-11-24T00:23:35.587Z,4.30
2022-11-24T00:26:10.216Z,4.18
2022-11-24T00:28:37.872Z,4.93
2022-11-24T00:31:16.972Z,4.85
2022-11-24T00:33:45.075Z,4.07
2022-11-24T00:36:11.708Z,4.05
2022-11-24T00:38:38.850Z,4.07
2022-11-24T00:41:05.702Z,4.07
2022-11-24T00:43:32.639Z,4.03
2022-11-24T00:45:59.311Z,4.05
2022-11-24T00:48:26.017Z,4.32
2022-11-24T00:51:04.632Z,4.00
2022-11-24T00:53:31.781Z,3.78
2022-11-24T00:55:58.622Z,4.05
2022-11-24T00:58:25.873Z,4.25
2022-11-24T01:00:52.921Z,3.22
2022-11-24T01:03:20.786Z,4.20
2022-11-24T01:05:47.831Z,4.00
2022-11-24T01:08:14.671Z,4.18
2022-11-24T01:10:41.308Z,4.05
2022-11-24T01:13:07.843Z,4.90
2022-11-24T01:15:37.626Z,4.00
2022-11-24T01:18:04.494Z,3.72
2022-11-24T01:20:32.157Z,3.85
2022-11-24T01:22:58.793Z,3.85
2022-11-24T01:25:25.427Z,3.92
2022-11-24T01:27:52.063Z,3.58
2022-11-24T01:30:18.860Z,3.88
2022-11-24T01:32:45.542Z,4.70
2022-11-24T01:35:12.180Z,3.78
2022-11-24T01:37:38.814Z,3.50
2022-11-24T01:40:06.073Z,3.40
2022-11-24T01:42:53.079Z,3.55
2022-11-24T01:45:41.514Z,4.03
2022-11-24T01:48:27.890Z,3.65
2022-11-24T01:51:11.459Z,4.32
2022-11-24T01:53:44.137Z,3.92
2022-11-24T01:56:12.827Z,3.70
2022-11-24T01:58:40.789Z,4.00
2022-11-24T02:01:08.165Z,3.15
2022-11-24T02:03:38.465Z,3.80
2022-11-24T02:06:13.190Z,4.20
2022-11-24T02:09:08.192Z,4.72
2022-11-24T02:11:37.187Z,3.67
2022-11-24T02:14:05.976Z,4.10
2022-11-24T02:16:35.782Z,4.50
2022-11-24T02:19:14.604Z,4.32
2022-11-24T02:21:41.444Z,3.60
2022-11-24T02:24:24.843Z,4.43
2022-11-24T02:26:52.534Z,4.43
2022-11-24T02:29:20.932Z,3.50
2022-11-24T02:31:52.669Z,3.63
2022-11-24T02:34:20.124Z,3.97
2022-11-24T02:36:46.660Z,4.40
2022-11-24T02:39:17.289Z,4.05
2022-11-24T02:41:49.864Z,4.35
2022-11-24T02:44:19.989Z,4.25
2022-11-24T02:46:46.618Z,4.30
2022-11-24T02:49:13.254Z,4.18
2022-11-24T02:51:39.789Z,4.07
2022-11-24T02:54:06.426Z,4.60
2022-11-24T02:56:36.647Z,3.25
2022-11-24T02:59:03.281Z,3.53
2022-11-24T03:01:30.192Z,3.72
2022-11-24T03:03:56.772Z,3.55
2022-11-24T03:06:23.398Z,4.53
2022-11-24T03:08:50.135Z,4.00
2022-11-24T03:11:16.771Z,4.60
2022-11-24T03:13:43.408Z,4.75
2022-11-24T03:16:10.454Z,4.93
2022-11-24T03:18:37.297Z,4.65
2022-11-24T03:21:04.035Z,4.10
2022-11-24T03:23:30.671Z,4.00
2022-11-24T03:26:17.067Z,3.97
2022-11-24T03:28:44.525Z,4.25
2022-11-24T03:31:11.797Z,3.90
2022-11-24T03:33:38.812Z,4.18
2022-11-24T03:36:07.200Z,4.63
2022-11-24T03:38:33.941Z,4.15
2022-11-24T03:41:00.575Z,4.13
2022-11-24T03:43:27.222Z,4.63
2022-11-24T03:45:53.895Z,4.43
2022-11-24T03:48:21.309Z,4.40
2022-11-24T03:50:56.258Z,4.90
2022-11-24T03:53:24.714Z,4.38
2022-11-24T03:55:51.557Z,4.25
2022-11-24T03:58:19.015Z,4.53
2022-11-24T04:00:46.264Z,4.35
2022-11-24T04:03:12.868Z,4.90
2022-11-24T04:05:39.534Z,4.70
2022-11-24T04:08:06.528Z,4.88
2022-11-24T04:10:36.442Z,4.85
2022-11-24T04:13:15.118Z,4.53
2022-11-24T04:15:42.906Z,4.53
2022-11-24T04:18:11.405Z,4.25
2022-11-24T04:20:38.399Z,5.10
2022-11-24T04:23:04.986Z,4.95
2022-11-24T04:25:31.879Z,4.70
2022-11-24T04:27:58.878Z,5.38
2022-11-24T04:30:27.410Z,4.35
2022-11-24T04:32:54.146Z,5.00
2022-11-24T04:35:21.498Z,4.88
2022-11-24T04:37:48.087Z,5.03
2022-11-24T04:40:15.802Z,5.82
2022-11-24T04:42:42.326Z,4.53
2022-11-24T04:45:10.457Z,5.47
2022-11-24T04:47:37.033Z,5.03
2022-11-24T04:50:04.796Z,5.53
2022-11-24T04:52:31.332Z,5.78
2022-11-24T04:54:57.865Z,5.13
2022-11-24T04:57:26.612Z,5.20
2022-11-24T04:59:54.312Z,4.85
2022-11-24T05:02:21.769Z,4.28
2022-11-24T05:04:48.840Z,4.57
2022-11-24T05:07:19.177Z,4.55
2022-11-24T05:10:05.843Z,5.10
2022-11-24T05:12:32.549Z,4.13
2022-11-24T05:15:00.242Z,4.15
2022-11-24T05:17:31.589Z,5.25
2022-11-24T05:19:58.812Z,4.05
2022-11-24T05:22:26.192Z,4.00
2022-11-24T05:24:52.725Z,3.53
2022-11-24T05:27:19.262Z,3.78
2022-11-24T05:29:45.804Z,4.85
2022-11-24T05:32:12.514Z,3.35
2022-11-24T05:34:39.556Z,3.60
2022-11-24T05:37:06.396Z,4.03
2022-11-24T05:39:34.474Z,3.63
2022-11-24T05:42:25.809Z,4.20
2022-11-24T05:44:52.833Z,4.45
2022-11-24T05:47:19.899Z,4.25
2022-11-24T05:49:46.723Z,3.83
2022-11-24T05:52:13.357Z,4.97
2022-11-24T05:54:40.115Z,4.38
2022-11-24T05:57:06.752Z,3.60
2022-11-24T05:59:33.899Z,3.65
2022-11-24T06:02:00.500Z,3.85
2022-11-24T06:04:32.501Z,3.42
2022-11-24T06:06:59.580Z,3.53
2022-11-24T06:09:26.106Z,3.42
2022-11-24T06:11:52.671Z,4.20
2022-11-24T06:14:19.198Z,4.45
2022-11-24T06:16:45.794Z,4.20
2022-11-24T06:19:12.419Z,4.55
2022-11-24T06:21:39.295Z,5.70
2022-11-24T06:24:06.203Z,4.90
2022-11-24T06:26:32.834Z,4.75
2022-11-24T06:28:59.482Z,5.78
2022-11-24T06:31:26.123Z,5.63
2022-11-24T06:33:53.274Z,5.70
2022-11-24T06:36:20.531Z,5.45
2022-11-24T06:38:47.065Z,5.30
2022-11-24T06:41:15.740Z,4.95
2022-11-24T06:43:42.570Z,5.35
2022-11-24T06:46:09.261Z,5.97
2022-11-24T06:48:38.405Z,5.35
2022-11-24T06:51:07.393Z,5.88
2022-11-24T06:53:38.844Z,5.15
2022-11-24T06:56:13.728Z,4.70
2022-11-24T06:58:44.411Z,6.00
2022-11-24T07:01:18.831Z,4.65
2022-11-24T07:03:45.570Z,5.33
2022-11-24T07:06:12.301Z,4.75
2022-11-24T07:08:38.936Z,4.05
2022-11-24T07:11:10.694Z,4.55
2022-11-24T07:13:37.329Z,4.15
2022-11-24T07:16:21.145Z,3.83
2022-11-24T07:18:49.121Z,3.75
2022-11-24T07:21:16.286Z,3.67
2022-11-24T07:23:43.128Z,3.45
2022-11-24T07:26:10.787Z,3.17
2022-11-24T07:28:38.041Z,2.85
2022-11-24T07:31:07.031Z,3.55
2022-11-24T07:33:33.871Z,2.55
2022-11-24T07:36:00.917Z,2.40
2022-11-24T07:38:29.390Z,2.47
2022-11-24T07:41:03.380Z,2.78
2022-11-24T07:43:31.935Z,2.05
2022-11-24T07:45:59.497Z,1.90
2022-11-24T07:48:26.387Z,2.45
2022-11-24T07:50:56.019Z,2.10
2022-11-24T07:53:23.154Z,2.33
2022-11-24T07:55:58.194Z,2.40
2022-11-24T07:58:28.860Z,2.10
2022-11-24T08:00:58.821Z,2.53
2022-11-24T08:03:25.407Z,2.17
2022-11-24T08:06:23.139Z,2.13
2022-11-24T08:08:46.891Z,1.80
2022-11-24T08:11:16.401Z,2.13
2022-11-24T08:13:43.644Z,2.20
2022-11-24T08:16:15.327Z,1.83
2022-11-24T08:18:43.066Z,2.17
2022-11-24T08:21:14.140Z,2.03
2022-11-24T08:23:41.659Z,1.90
2022-11-24T08:26:13.881Z,1.95
2022-11-24T08:28:40.462Z,1.73
2022-11-24T08:31:13.409Z,2.10
2022-11-24T08:33:41.619Z,2.00
2022-11-24T08:36:13.582Z,1.98
2022-11-24T08:38:40.636Z,2.05
2022-11-24T08:41:10.952Z,2.03
2022-11-24T08:43:38.100Z,2.33
2022-11-24T08:46:07.148Z,2.47
2022-11-24T08:48:35.056Z,2.20
2022-11-24T08:51:10.296Z,2.03
2022-11-24T08:53:37.136Z,2.10
2022-11-24T08:56:05.207Z,2.00
2022-11-24T08:58:32.153Z,2.00
2022-11-24T09:01:28.547Z,2.35
2022-11-24T09:03:55.329Z,2.13
2022-11-24T09:06:25.034Z,2.55
2022-11-24T09:08:53.921Z,2.35
2022-11-24T09:11:20.663Z,2.40
2022-11-24T09:13:47.506Z,2.50
2022-11-24T09:16:21.860Z,2.50
2022-11-24T09:18:54.495Z,2.47
2022-11-24T09:21:21.957Z,2.33
2022-11-24T09:23:51.046Z,2.20
2022-11-24T09:26:19.076Z,2.40
2022-11-24T09:28:46.887Z,2.53
2022-11-24T09:31:15.972Z,2.10
2022-11-24T09:33:42.683Z,2.10
2022-11-24T09:36:09.656Z,2.42
2022-11-24T09:38:36.191Z,2.75
2022-11-24T09:41:14.909Z,2.53
2022-11-24T09:43:47.587Z,2.33
2022-11-24T09:46:26.807Z,2.47
2022-11-24T09:48:57.314Z,2.88
2022-11-24T09:51:29.309Z,2.63
2022-11-24T09:54:09.460Z,2.65
2022-11-24T09:56:40.623Z,2.67
2022-11-24T09:59:18.402Z,2.70
2022-11-24T10:01:46.720Z,2.33
2022-11-24T10:04:19.918Z,3.13
2022-11-24T10:07:17.598Z,2.67
2022-11-24T10:10:06.902Z,3.30
2022-11-24T10:12:44.184Z,2.80
2022-11-24T10:15:16.860Z,3.65
2022-11-24T10:18:16.213Z,3.22
2022-11-24T10:20:52.220Z,3.00
2022-11-24T10:23:26.129Z,2.70
2022-11-24T10:25:55.836Z,3.30
2022-11-24T10:28:29.011Z,3.70
2022-11-24T10:31:13.427Z,3.25
2022-11-24T10:33:41.753Z,3.13
2022-11-24T10:36:16.787Z,3.08
2022-11-24T10:38:56.637Z,3.08
2022-11-24T10:42:00.850Z,2.83
2022-11-24T10:44:27.368Z,3.13
2022-11-24T10:46:54.146Z,3.40
2022-11-24T10:49:27.000Z,3.50
2022-11-24T10:52:12.684Z,3.20
2022-11-24T10:54:56.013Z,2.80
2022-11-24T10:57:37.812Z,3.65
2022-11-24T11:00:24.913Z,2.92
2022-11-24T11:03:11.917Z,3.15
2022-11-24T11:05:44.515Z,3.20
2022-11-24T11:08:14.331Z,3.17
2022-11-24T11:10:42.890Z,3.17
2022-11-24T11:13:29.135Z,3.63
2022-11-24T11:15:58.362Z,3.10
2022-11-24T11:18:35.778Z,3.60
2022-11-24T11:21:03.661Z,2.90
2022-11-24T11:23:37.154Z,3.45
2022-11-24T11:26:25.395Z,2.97
2022-11-24T11:35:12.906Z,3.40
2022-11-24T11:37:40.281Z,3.13
2022-11-24T11:40:16.472Z,2.78
2022-11-24T11:43:05.482Z,3.50
2022-11-24T11:45:36.241Z,2.80
2022-11-24T11:48:05.461Z,3.28
2022-11-24T11:51:21.186Z,2.72
2022-11-24T11:53:54.511Z,3.10
2022-11-24T11:56:40.477Z,3.00
2022-11-24T11:59:22.221Z,3.28
2022-11-24T12:01:51.724Z,2.95
2022-11-24T12:04:39.762Z,3.25
2022-11-24T12:07:24.899Z,2.60
2022-11-24T12:10:13.056Z,2.70
2022-11-24T12:13:05.719Z,2.63
2022-11-24T12:15:44.281Z,2.50
2022-11-24T12:21:38.332Z,2.53
2022-11-24T12:24:57.255Z,2.58
2022-11-24T12:27:53.115Z,2.90
2022-11-24T12:30:21.957Z,2.80
2022-11-24T12:32:57.447Z,2.63
2022-11-24T12:35:36.168Z,3.35
2022-11-24T12:38:11.453Z,2.75
2022-11-24T12:43:52.240Z,3.47
2022-11-24T12:46:47.027Z,2.67
2022-11-24T12:49:28.062Z,3.10
2022-11-24T12:52:01.412Z,2.28
2022-11-24T12:54:34.035Z,2.65
2022-11-24T12:57:08.673Z,3.50
2022-11-24T12:59:57.096Z,3.47
2022-11-24T13:02:42.343Z,3.53
2022-11-24T13:05:24.684Z,2.95
2022-11-24T13:08:01.251Z,2.72
2022-11-24T13:10:54.613Z,3.15
2022-11-24T13:13:18.842Z,3.08
2022-11-24T13:16:28.522Z,2.33
2022-11-24T13:18:52.740Z,3.05
2022-11-24T13:21:42.975Z,3.03
2022-11-24T13:24:24.322Z,2.83
2022-11-24T13:27:12.225Z,3.30
2022-11-24T13:29:40.249Z,3.17
2022-11-24T13:32:06.727Z,2.85
2022-11-24T13:34:39.506Z,3.08
2022-11-24T13:37:35.081Z,2.97
2022-11-24T13:40:22.535Z,2.80
2022-11-24T13:42:55.426Z,3.30
2022-11-24T13:45:41.649Z,3.65
2022-11-24T13:48:21.004Z,4.43
2022-11-24T13:50:51.572Z,3.42
2022-11-24T13:53:37.236Z,3.55
2022-11-24T13:56:12.584Z,3.40
2022-11-24T14:01:29.017Z,3.28
2022-11-24T14:04:33.105Z,3.05
2022-11-24T14:07:12.945Z,3.58
2022-11-24T14:09:52.178Z,3.90
2022-11-24T14:12:25.265Z,3.00
2022-11-24T14:14:55.573Z,3.17
2022-11-24T14:17:24.321Z,2.92
2022-11-24T14:19:56.279Z,3.45
2022-11-24T14:22:27.722Z,3.45
2022-11-24T14:25:00.297Z,3.28
2022-11-24T14:27:34.105Z,3.58
2022-11-24T14:30:21.121Z,3.22
2022-11-24T14:33:01.670Z,2.85
2022-11-24T14:35:36.135Z,2.67
2022-11-24T14:38:04.782Z,4.30
2022-11-24T14:40:40.532Z,3.00
2022-11-24T14:43:18.908Z,4.13
2022-11-24T14:46:09.119Z,3.15
2022-11-24T14:48:46.920Z,3.03
2022-11-24T14:51:20.739Z,3.03
2022-11-24T14:53:51.778Z,2.65
2022-11-24T14:56:33.976Z,3.30
2022-11-24T14:59:00.911Z,2.92
2022-11-24T15:01:27.737Z,2.45
2022-11-24T15:04:46.329Z,3.10
2022-11-24T15:07:25.729Z,3.33
2022-11-24T15:09:58.411Z,2.80
2022-11-24T15:12:30.676Z,2.95
2022-11-24T15:15:20.474Z,2.92
2022-11-24T15:17:49.877Z,3.78
2022-11-24T15:20:38.223Z,2.70
2022-11-24T15:23:33.229Z,2.58
2022-11-24T15:26:02.594Z,2.80
2022-11-24T15:28:33.302Z,3.03
2022-11-24T15:31:00.980Z,3.05
2022-11-24T15:33:27.981Z,3.88
2022-11-24T15:35:54.601Z,3.10
2022-11-24T15:38:22.260Z,3.70
2022-11-24T15:40:51.760Z,2.92
2022-11-24T15:43:39.390Z,3.53
2022-11-24T15:46:09.206Z,3.55
2022-11-24T15:48:35.939Z,3.60
2022-11-24T15:51:05.214Z,2.90
2022-11-24T15:53:38.770Z,3.78
2022-11-24T15:56:15.907Z,3.72
2022-11-24T15:58:43.489Z,4.35
2022-11-24T16:01:10.035Z,4.07
2022-11-24T16:03:46.790Z,4.22
2022-11-24T16:06:23.778Z,3.55
2022-11-24T16:08:54.312Z,3.75
2022-11-24T16:11:21.550Z,3.60
2022-11-24T16:13:52.413Z,4.25
2022-11-24T16:16:20.533Z,3.80
2022-11-24T16:18:47.187Z,4.00
2022-11-24T16:21:13.756Z,3.85
2022-11-24T16:23:40.666Z,4.38
2022-11-24T16:26:07.505Z,4.45
2022-11-24T16:28:34.449Z,4.05
2022-11-24T16:31:01.333Z,4.13
2022-11-24T16:33:32.431Z,3.72
2022-11-24T16:35:59.171Z,3.80
2022-11-24T16:38:25.793Z,3.92
2022-11-24T16:40:54.123Z,4.03
2022-11-24T16:43:20.879Z,3.67
2022-11-24T16:46:00.169Z,3.85
2022-11-24T16:48:26.796Z,4.40
2022-11-24T16:50:54.144Z,3.90
2022-11-24T16:53:20.748Z,4.70
2022-11-24T16:55:56.636Z,3.67
2022-11-24T16:58:23.167Z,3.67
2022-11-24T17:00:52.740Z,4.07
2022-11-24T17:03:19.288Z,3.80
2022-11-24T17:05:57.121Z,4.07
2022-11-24T17:08:25.789Z,3.95
2022-11-24T17:10:52.941Z,3.40
2022-11-24T17:13:19.678Z,4.10
2022-11-24T17:15:52.581Z,3.78
2022-11-24T17:18:25.229Z,4.13
2022-11-24T17:20:52.703Z,3.72
2022-11-24T17:23:19.692Z,4.07
2022-11-24T17:25:46.458Z,3.70
2022-11-24T17:28:13.108Z,4.05
2022-11-24T17:30:39.629Z,4.10
2022-11-24T17:33:10.688Z,5.00
2022-11-24T17:35:37.907Z,4.07
2022-11-24T17:38:04.565Z,4.68
2022-11-24T17:40:31.134Z,4.20
2022-11-24T17:42:59.603Z,4.78
2022-11-24T17:45:27.617Z,3.80
2022-11-24T17:47:54.546Z,3.60
2022-11-24T17:50:25.391Z,3.63
2022-11-24T17:52:52.575Z,4.20
2022-11-24T17:55:19.122Z,3.92
2022-11-24T17:57:45.656Z,3.45
2022-11-24T18:00:13.007Z,3.85
2022-11-24T18:02:39.914Z,3.80
2022-11-24T18:05:06.899Z,3.95
2022-11-24T18:07:36.448Z,4.13
2022-11-24T18:10:03.446Z,4.00
2022-11-24T18:12:29.979Z,4.43
2022-11-24T18:14:56.615Z,3.85
2022-11-24T18:17:23.088Z,3.80
2022-11-24T18:19:49.580Z,3.83
2022-11-24T18:22:16.205Z,3.17
2022-11-24T18:24:42.750Z,3.47
2022-11-24T18:27:09.360Z,3.78
2022-11-24T18:29:35.912Z,4.32
2022-11-24T18:32:05.699Z,3.78
2022-11-24T18:34:32.546Z,4.05
2022-11-24T18:36:59.311Z,3.75
2022-11-24T18:39:25.959Z,3.72
2022-11-24T18:41:52.482Z,3.63
2022-11-24T18:44:19.174Z,3.45
2022-11-24T18:46:45.653Z,3.85
2022-11-24T18:49:12.186Z,3.53
2022-11-24T18:51:38.823Z,3.60
2022-11-24T18:54:05.577Z,4.30
2022-11-24T18:56:32.198Z,4.25
2022-11-24T18:58:59.040Z,3.70
2022-11-24T19:01:28.006Z,3.67
2022-11-24T19:03:57.636Z,3.88
2022-11-24T19:06:32.458Z,3.72
2022-11-24T19:09:11.903Z,4.07
2022-11-24T19:11:40.688Z,4.18
2022-11-24T19:14:11.218Z,3.92
2022-11-24T19:16:38.229Z,4.18
2022-11-24T19:19:05.103Z,4.03
2022-11-24T19:21:38.909Z,4.03
2022-11-24T19:24:07.080Z,3.78
2022-11-24T19:26:36.976Z,4.25
2022-11-24T19:29:05.170Z,3.80
2022-11-24T19:31:32.340Z,3.55
2022-11-24T19:33:59.850Z,4.00
2022-11-24T19:36:26.511Z,3.95
2022-11-24T19:38:54.919Z,3.92
2022-11-24T19:41:23.672Z,3.95
2022-11-24T19:43:50.311Z,4.30
2022-11-24T19:46:18.864Z,4.20
2022-11-24T19:48:48.473Z,5.15
2022-11-24T19:51:17.899Z,5.55
2022-11-24T19:53:45.354Z,5.88
2022-11-24T19:56:17.724Z,4.80
2022-11-24T19:58:44.461Z,4.28
2022-11-24T20:01:20.000Z,4.90
2022-11-24T20:03:49.426Z,4.97
2022-11-24T20:06:16.457Z,3.80
2022-11-24T20:08:43.599Z,3.38
2022-11-24T20:11:12.903Z,3.42
2022-11-24T20:13:41.383Z,4.00
2022-11-24T20:16:11.659Z,3.97
2022-11-24T20:18:43.936Z,3.90
2022-11-24T20:22:06.828Z,3.65
2022-11-24T20:24:33.674Z,3.50
2022-11-24T20:27:00.613Z,3.83
2022-11-24T20:29:29.198Z,4.32
2022-11-24T20:31:56.383Z,4.57
2022-11-24T20:34:23.901Z,3.88
2022-11-24T20:36:52.810Z,4.30
2022-11-24T20:39:26.304Z,3.92
2022-11-24T20:41:54.563Z,3.95
2022-11-24T20:44:22.122Z,3.25
2022-11-24T20:46:49.270Z,3.97
2022-11-24T20:49:18.365Z,4.28
2022-11-24T20:51:47.572Z,3.95
2022-11-24T20:54:16.347Z,3.85
2022-11-24T20:56:44.624Z,3.60
2022-11-24T20:59:14.125Z,3.90
2022-11-24T21:01:43.638Z,4.13
2022-11-24T21:04:15.590Z,3.47
2022-11-24T21:06:42.123Z,3.28
2022-11-24T21:09:09.681Z,3.70
2022-11-24T21:11:37.527Z,3.75
2022-11-24T21:14:04.695Z,4.65
2022-11-24T21:16:33.887Z,3.47
2022-11-24T21:19:06.571Z,3.72
2022-11-24T21:21:35.273Z,4.13
2022-11-24T21:24:03.121Z,3.70
2022-11-24T21:26:29.961Z,3.55
2022-11-24T21:28:57.519Z,3.38
2022-11-24T21:31:24.434Z,3.50
2022-11-24T21:33:53.556Z,3.97
2022-11-24T21:36:22.839Z,3.95
2022-11-24T21:38:51.510Z,4.13
2022-11-24T21:41:18.860Z,3.92
2022-11-24T21:43:45.836Z,3.63
2022-11-24T21:46:17.398Z,4.25
2022-11-24T21:48:44.760Z,3.60
2022-11-24T21:51:17.113Z,4.65
2022-11-24T21:53:44.772Z,4.20
2022-11-24T21:56:19.590Z,3.80
2022-11-24T21:58:57.400Z,4.05
2022-11-24T22:01:29.885Z,4.00
2022-11-24T22:03:56.510Z,3.90
2022-11-24T22:06:23.759Z,3.97
2022-11-24T22:08:50.395Z,4.63
2022-11-24T22:11:22.254Z,4.25
2022-11-24T22:13:49.710Z,4.45
2022-11-24T22:16:21.638Z,4.22
2022-11-24T22:18:48.957Z,4.00
2022-11-24T22:21:23.755Z,3.78
2022-11-24T22:23:52.688Z,3.40
2022-11-24T22:26:21.636Z,4.05
2022-11-24T22:28:48.986Z,3.75
2022-11-24T22:31:27.062Z,4.07
2022-11-24T22:33:54.643Z,4.15
2022-11-24T22:36:22.410Z,3.80
2022-11-24T22:38:59.492Z,3.05
2022-11-24T22:41:26.232Z,4.05
2022-11-24T22:43:53.593Z,4.03
2022-11-24T22:46:26.163Z,3.67
2022-11-24T22:48:54.435Z,3.67
2022-11-24T22:51:24.216Z,3.30
2022-11-24T22:53:54.877Z,4.22
2022-11-24T22:56:22.229Z,3.90
2022-11-24T22:58:49.480Z,3.72
2022-11-24T23:01:18.988Z,3.38
2022-11-24T23:03:45.678Z,3.90
2022-11-24T23:06:27.213Z,3.38
2022-11-24T23:08:55.071Z,4.03
2022-11-24T23:11:30.696Z,3.50
2022-11-24T23:14:02.478Z,3.65
2022-11-24T23:16:29.914Z,4.10
2022-11-24T23:18:57.391Z,3.88
2022-11-24T23:21:29.443Z,3.92
2022-11-24T23:23:57.828Z,3.67
2022-11-24T23:26:29.372Z,3.88
2022-11-24T23:28:55.913Z,3.65
2022-11-24T23:31:27.383Z,3.85
2022-11-24T23:33:55.432Z,3.53
2022-11-24T23:36:22.171Z,3.53
2022-11-24T23:38:49.011Z,4.32
2022-11-24T23:41:24.933Z,3.78
2022-11-24T23:43:52.462Z,4.35
2022-11-24T23:46:21.696Z,3.47
2022-11-24T23:48:49.791Z,3.75
2022-11-24T23:51:19.402Z,4.05
2022-11-24T23:53:46.751Z,3.70
2022-11-24T23:56:15.639Z,3.45
2022-11-24T23:58:42.589Z,3.80
